createdAt,value
2022-08-17T00:00:43.262Z,24.20
2022-08-17T00:03:17.171Z,24.30
2022-08-17T00:05:49.101Z,24.50
2022-08-17T00:08:20.051Z,24.50
2022-08-17T00:10:49.531Z,24.50
2022-08-17T00:13:21.152Z,24.40
2022-08-17T00:15:51.460Z,24.40
2022-08-17T00:19:02.412Z,24.40
2022-08-17T00:21:10.827Z,24.60
2022-08-17T00:23:46.210Z,24.80
2022-08-17T00:26:43.550Z,24.80
2022-08-17T00:29:06.941Z,24.60
2022-08-17T00:31:37.936Z,24.40
2022-08-17T00:34:08.855Z,24.20
2022-08-17T00:36:37.518Z,24.10
2022-08-17T00:39:06.241Z,24.20
2022-08-17T00:41:35.905Z,24.20
2022-08-17T00:44:05.877Z,24.30
2022-08-17T00:46:41.037Z,24.40
2022-08-17T00:49:11.408Z,24.50
2022-08-17T00:51:44.353Z,24.30
2022-08-17T00:54:15.299Z,24.40
2022-08-17T00:56:47.412Z,24.20
2022-08-17T00:59:18.590Z,24.20
2022-08-17T01:01:50.685Z,24.10
2022-08-17T01:04:21.171Z,24.10
2022-08-17T01:06:51.073Z,24.40
2022-08-17T01:09:20.394Z,24.30
2022-08-17T01:11:52.456Z,24.40
2022-08-17T01:17:06.190Z,23.80
2022-08-17T01:19:37.933Z,23.90
2022-08-17T01:22:11.253Z,23.90
2022-08-17T01:24:43.548Z,23.50
2022-08-17T01:27:14.589Z,23.60
2022-08-17T01:29:46.044Z,23.60
2022-08-17T01:32:15.422Z,23.60
2022-08-17T01:34:50.239Z,23.40
2022-08-17T01:37:20.575Z,23.40
2022-08-17T01:39:53.808Z,23.60
2022-08-17T01:42:27.810Z,23.80
2022-08-17T01:45:00.060Z,23.70
2022-08-17T01:47:29.871Z,23.30
2022-08-17T01:49:59.641Z,23.30
2022-08-17T01:52:28.041Z,23.40
2022-08-17T01:54:58.515Z,23.50
2022-08-17T01:57:26.893Z,23.50
2022-08-17T01:59:55.639Z,23.30
2022-08-17T02:02:31.175Z,23.60
2022-08-17T02:05:00.267Z,23.70
2022-08-17T02:07:29.143Z,23.30
2022-08-17T02:09:59.585Z,23.30
2022-08-17T02:12:39.224Z,23.40
2022-08-17T02:15:10.298Z,23.10
2022-08-17T02:17:40.618Z,23.20
2022-08-17T02:20:10.225Z,23.20
2022-08-17T02:22:40.636Z,23.30
2022-08-17T02:25:13.036Z,23.50
2022-08-17T02:27:41.520Z,23.50
2022-08-17T02:30:59.722Z,23.30
2022-08-17T02:33:04.249Z,23.20
2022-08-17T02:35:34.694Z,23.50
2022-08-17T02:38:03.545Z,23.40
2022-08-17T02:40:35.910Z,23.30
2022-08-17T02:43:05.663Z,23.30
2022-08-17T02:45:34.562Z,23.10
2022-08-17T02:48:03.225Z,22.90
2022-08-17T02:50:31.707Z,22.70
2022-08-17T02:53:02.432Z,22.80
2022-08-17T02:55:36.431Z,23.00
2022-08-17T02:58:05.169Z,23.30
2022-08-17T03:00:37.252Z,23.40
2022-08-17T03:03:07.131Z,23.00
2022-08-17T03:05:38.116Z,22.90
2022-08-17T03:08:12.991Z,23.20
2022-08-17T03:10:43.925Z,22.90
2022-08-17T03:13:14.519Z,22.90
2022-08-17T03:15:45.994Z,23.10
2022-08-17T03:18:24.288Z,23.10
2022-08-17T03:20:53.973Z,23.10
2022-08-17T03:23:24.128Z,23.00
2022-08-17T03:25:56.540Z,22.90
2022-08-17T03:28:25.553Z,23.20
2022-08-17T03:30:53.964Z,23.30
2022-08-17T03:33:22.779Z,23.20
2022-08-17T03:35:51.848Z,22.90
2022-08-17T03:38:20.357Z,22.60
2022-08-17T03:40:56.361Z,22.80
2022-08-17T03:43:31.146Z,22.90
2022-08-17T03:46:34.003Z,22.80
2022-08-17T03:49:23.848Z,22.70
2022-08-17T03:52:09.568Z,22.80
2022-08-17T03:54:55.898Z,22.90
2022-08-17T03:57:24.812Z,22.40
2022-08-17T03:59:55.184Z,22.30
2022-08-17T04:02:28.177Z,22.40
2022-08-17T04:04:56.801Z,22.40
2022-08-17T04:07:27.624Z,22.40
2022-08-17T04:09:58.193Z,22.50
2022-08-17T04:12:30.813Z,22.70
2022-08-17T04:15:01.156Z,22.60
2022-08-17T04:17:30.908Z,22.50
2022-08-17T04:19:59.862Z,22.50
2022-08-17T04:22:30.482Z,22.50
2022-08-17T04:25:00.254Z,22.40
2022-08-17T04:27:28.623Z,22.40
2022-08-17T04:29:56.991Z,22.40
2022-08-17T04:33:03.471Z,22.60
2022-08-17T04:35:20.182Z,22.10
2022-08-17T04:37:48.627Z,22.10
2022-08-17T04:40:34.993Z,22.00
2022-08-17T04:43:06.059Z,22.10
2022-08-17T04:45:40.765Z,22.10
2022-08-17T04:48:36.651Z,22.30
2022-08-17T04:51:10.027Z,21.90
2022-08-17T04:53:41.277Z,21.80
2022-08-17T04:56:11.851Z,21.90
2022-08-17T04:58:45.758Z,21.90
2022-08-17T05:01:14.423Z,22.20
2022-08-17T05:03:44.701Z,22.40
2022-08-17T05:06:13.396Z,22.60
2022-08-17T05:08:42.100Z,22.60
2022-08-17T05:11:10.505Z,22.60
2022-08-17T05:13:38.973Z,22.60
2022-08-17T05:16:09.211Z,22.80
2022-08-17T05:18:39.027Z,23.10
2022-08-17T05:21:09.113Z,22.80
2022-08-17T05:23:42.544Z,22.80
2022-08-17T05:26:24.786Z,22.80
2022-08-17T05:28:57.142Z,22.80
2022-08-17T05:31:35.718Z,22.50
2022-08-17T05:34:04.121Z,22.60
2022-08-17T05:36:42.397Z,22.70
2022-08-17T05:39:15.960Z,22.70
2022-08-17T05:41:45.999Z,22.80
2022-08-17T05:44:14.570Z,22.70
2022-08-17T05:46:48.837Z,22.70
2022-08-17T05:49:20.201Z,22.90
2022-08-17T05:52:21.972Z,23.00
2022-08-17T05:55:03.105Z,22.90
2022-08-17T05:57:53.666Z,23.10
2022-08-17T06:00:30.515Z,23.20
2022-08-17T06:03:18.300Z,23.20
2022-08-17T06:06:06.540Z,23.20
2022-08-17T06:08:45.454Z,23.10
2022-08-17T06:11:21.594Z,23.30
2022-08-17T06:14:14.914Z,23.50
2022-08-17T06:16:47.603Z,23.60
2022-08-17T06:19:22.066Z,23.80
2022-08-17T06:21:54.014Z,23.80
2022-08-17T06:24:34.338Z,23.90
2022-08-17T06:27:10.280Z,23.90
2022-08-17T06:29:46.141Z,24.00
2022-08-17T06:32:16.671Z,24.10
2022-08-17T06:34:47.187Z,24.20
2022-08-17T06:37:31.206Z,24.50
2022-08-17T06:40:15.939Z,24.50
2022-08-17T06:43:06.002Z,24.50
2022-08-17T06:48:29.329Z,24.70
2022-08-17T06:51:01.884Z,24.80
2022-08-17T06:53:37.762Z,24.90
2022-08-17T06:56:10.621Z,24.90
2022-08-17T06:58:41.411Z,25.00
2022-08-17T07:01:15.287Z,25.10
2022-08-17T07:03:54.756Z,25.20
2022-08-17T07:06:29.134Z,25.40
2022-08-17T07:09:02.317Z,25.40
2022-08-17T07:11:42.204Z,25.30
2022-08-17T07:14:32.070Z,25.30
2022-08-17T07:17:05.889Z,25.40
2022-08-17T07:19:36.529Z,25.50
2022-08-17T07:22:15.975Z,25.60
2022-08-17T07:24:51.057Z,25.40
2022-08-17T07:27:23.410Z,25.60
2022-08-17T07:29:56.712Z,25.60
2022-08-17T07:32:31.612Z,25.60
2022-08-17T07:35:12.169Z,25.60
2022-08-17T07:37:51.009Z,25.70
2022-08-17T07:40:28.149Z,25.90
2022-08-17T07:43:22.051Z,26.10
2022-08-17T07:46:33.862Z,26.20
2022-08-17T07:49:35.313Z,26.40
2022-08-17T07:52:47.682Z,26.50
2022-08-17T07:54:56.783Z,26.50
2022-08-17T07:57:35.379Z,26.60
2022-08-17T08:00:26.650Z,26.70
2022-08-17T08:03:16.097Z,26.90
2022-08-17T08:05:57.726Z,27.00
2022-08-17T08:08:34.241Z,27.20
2022-08-17T08:11:07.295Z,27.20
2022-08-17T08:13:42.433Z,27.20
2022-08-17T08:19:09.276Z,27.30
2022-08-17T08:21:47.371Z,27.20
2022-08-17T08:24:46.572Z,27.40
2022-08-17T08:27:28.188Z,27.70
2022-08-17T08:30:07.845Z,27.60
2022-08-17T08:32:50.594Z,27.80
2022-08-17T08:35:29.666Z,27.90
2022-08-17T08:38:08.575Z,27.90
2022-08-17T08:41:08.822Z,28.00
2022-08-17T08:43:52.217Z,28.10
2022-08-17T08:46:29.975Z,28.10
2022-08-17T08:50:02.097Z,28.00
2022-08-17T08:52:41.579Z,27.80
2022-08-17T08:55:16.854Z,28.00
2022-08-17T08:57:51.895Z,28.20
2022-08-17T09:00:22.714Z,28.30
2022-08-17T09:03:31.559Z,28.30
2022-08-17T09:06:39.254Z,28.20
2022-08-17T09:09:19.565Z,28.30
2022-08-17T09:12:02.282Z,28.50
2022-08-17T09:14:46.645Z,28.50
2022-08-17T09:17:18.754Z,28.50
2022-08-17T09:19:53.200Z,28.60
2022-08-17T09:22:31.784Z,28.70
2022-08-17T09:25:08.044Z,28.90
2022-08-17T09:27:49.499Z,28.90
2022-08-17T09:30:18.665Z,29.20
2022-08-17T09:32:52.218Z,29.20
2022-08-17T09:35:23.981Z,29.10
2022-08-17T09:38:01.482Z,29.20
2022-08-17T09:40:39.037Z,29.30
2022-08-17T09:43:14.188Z,29.50
2022-08-17T09:45:50.787Z,29.60
2022-08-17T09:48:25.775Z,29.80
2022-08-17T09:51:06.502Z,29.90
2022-08-17T09:53:37.593Z,29.70
2022-08-17T09:56:24.181Z,29.90
2022-08-17T09:59:20.194Z,29.80
2022-08-17T10:01:53.781Z,29.70
2022-08-17T10:04:39.290Z,29.60
2022-08-17T10:07:15.178Z,29.60
2022-08-17T10:09:55.898Z,29.30
2022-08-17T10:12:36.794Z,29.10
2022-08-17T10:15:17.405Z,29.00
2022-08-17T10:18:08.181Z,29.30
2022-08-17T10:20:45.034Z,29.50
2022-08-17T10:23:40.544Z,29.70
2022-08-17T10:26:16.754Z,29.90
2022-08-17T10:28:52.746Z,30.10
2022-08-17T10:31:40.821Z,30.30
2022-08-17T10:34:34.157Z,30.40
2022-08-17T10:37:25.221Z,30.60
2022-08-17T10:39:59.701Z,30.70
2022-08-17T10:42:33.101Z,30.80
2022-08-17T10:45:08.040Z,30.70
2022-08-17T10:48:04.848Z,30.70
2022-08-17T10:51:15.744Z,30.80
2022-08-17T10:54:00.526Z,30.90
2022-08-17T10:56:45.144Z,30.90
2022-08-17T10:59:52.676Z,30.90
2022-08-17T11:02:28.445Z,30.90
2022-08-17T11:05:22.398Z,30.80
2022-08-17T11:08:22.262Z,30.70
2022-08-17T11:11:17.590Z,30.50
2022-08-17T11:13:54.690Z,30.60
2022-08-17T11:16:41.799Z,30.60
2022-08-17T11:19:41.214Z,30.90
2022-08-17T11:22:35.227Z,31.00
2022-08-17T11:25:18.779Z,30.90
2022-08-17T11:27:53.823Z,31.10
2022-08-17T11:30:47.017Z,31.00
2022-08-17T11:33:55.999Z,31.00
2022-08-17T11:36:50.864Z,31.00
2022-08-17T11:39:44.863Z,31.20
2022-08-17T11:42:26.801Z,31.00
2022-08-17T11:44:58.623Z,31.10
2022-08-17T11:48:15.941Z,31.30
2022-08-17T11:51:05.141Z,31.20
2022-08-17T11:56:42.250Z,30.90
2022-08-17T11:59:47.994Z,31.10
2022-08-17T12:02:47.429Z,31.40
2022-08-17T12:05:36.272Z,31.50
2022-08-17T12:08:18.607Z,31.60
2022-08-17T12:11:12.727Z,31.70
2022-08-17T12:13:48.765Z,31.80
2022-08-17T12:16:18.598Z,31.80
2022-08-17T12:18:53.622Z,31.80
2022-08-17T12:21:39.008Z,31.70
2022-08-17T12:24:17.353Z,31.80
2022-08-17T12:26:53.642Z,31.80
2022-08-17T12:29:35.819Z,31.70
2022-08-17T12:32:16.682Z,31.70
2022-08-17T12:34:46.764Z,31.70
2022-08-17T12:37:19.290Z,31.70
2022-08-17T12:39:57.492Z,31.60
2022-08-17T12:42:30.045Z,31.60
2022-08-17T12:45:01.485Z,31.70
2022-08-17T12:47:32.833Z,31.70
2022-08-17T12:50:29.445Z,31.80
2022-08-17T12:53:01.672Z,31.80
2022-08-17T12:55:36.086Z,31.70
2022-08-17T12:58:05.517Z,31.70
2022-08-17T13:00:38.178Z,31.80
2022-08-17T13:03:21.319Z,31.90
2022-08-17T13:05:58.737Z,31.50
2022-08-17T13:08:32.295Z,31.40
2022-08-17T13:11:06.494Z,31.50
2022-08-17T13:13:39.083Z,31.60
2022-08-17T13:16:18.106Z,31.80
2022-08-17T13:18:48.919Z,31.90
2022-08-17T13:21:27.896Z,31.80
2022-08-17T13:23:58.828Z,31.80
2022-08-17T13:26:32.978Z,31.80
2022-08-17T13:29:02.631Z,31.90
2022-08-17T13:31:38.592Z,32.00
2022-08-17T13:34:33.796Z,31.80
2022-08-17T13:37:29.740Z,32.00
2022-08-17T13:40:00.785Z,32.00
2022-08-17T13:42:35.050Z,31.90
2022-08-17T13:45:46.177Z,31.90
2022-08-17T13:48:32.164Z,31.90
2022-08-17T13:51:15.460Z,32.00
2022-08-17T13:53:57.808Z,32.00
2022-08-17T13:56:37.117Z,31.90
2022-08-17T13:59:11.223Z,31.80
2022-08-17T14:01:43.067Z,31.80
2022-08-17T14:04:15.293Z,31.80
2022-08-17T14:06:54.366Z,31.90
2022-08-17T14:09:25.347Z,32.00
2022-08-17T14:11:55.866Z,32.00
2022-08-17T14:14:24.590Z,31.80
2022-08-17T14:16:53.534Z,31.80
2022-08-17T14:19:23.610Z,31.70
2022-08-17T14:21:58.980Z,31.70
2022-08-17T14:24:30.705Z,31.80
2022-08-17T14:26:59.908Z,31.70
2022-08-17T14:29:30.408Z,31.80
2022-08-17T14:31:59.675Z,31.60
2022-08-17T14:34:29.602Z,31.60
2022-08-17T14:36:58.148Z,31.60
2022-08-17T14:39:26.606Z,31.60
2022-08-17T14:41:56.270Z,31.40
2022-08-17T14:44:24.651Z,31.30
2022-08-17T14:46:53.065Z,31.20
2022-08-17T14:49:21.460Z,31.20
2022-08-17T14:52:10.514Z,31.00
2022-08-17T14:54:43.737Z,31.00
2022-08-17T14:57:24.521Z,31.00
2022-08-17T15:00:02.611Z,31.10
2022-08-17T15:02:31.348Z,31.00
2022-08-17T15:05:00.880Z,31.10
2022-08-17T15:07:31.391Z,31.00
2022-08-17T15:10:01.455Z,31.00
2022-08-17T15:12:34.139Z,31.00
2022-08-17T15:15:04.794Z,30.80
2022-08-17T15:17:44.504Z,30.70
2022-08-17T15:20:16.477Z,30.70
2022-08-17T15:22:49.894Z,30.60
2022-08-17T15:25:20.303Z,30.70
2022-08-17T15:27:49.073Z,30.60
2022-08-17T15:30:18.027Z,30.70
2022-08-17T15:32:54.525Z,30.80
2022-08-17T15:35:28.251Z,30.70
2022-08-17T15:38:06.107Z,30.70
2022-08-17T15:40:38.207Z,30.60
2022-08-17T15:43:07.510Z,30.60
2022-08-17T15:45:36.261Z,30.50
2022-08-17T15:48:05.196Z,30.50
2022-08-17T15:50:33.770Z,30.70
2022-08-17T15:53:05.008Z,30.70
2022-08-17T15:55:34.826Z,30.90
2022-08-17T15:58:03.802Z,30.70
2022-08-17T16:00:36.415Z,30.80
2022-08-17T16:03:58.071Z,30.70
2022-08-17T16:06:09.280Z,30.50
2022-08-17T16:08:43.866Z,30.30
2022-08-17T16:11:15.971Z,30.20
2022-08-17T16:13:47.331Z,30.10
2022-08-17T16:16:23.745Z,30.10
2022-08-17T16:18:54.683Z,30.00
2022-08-17T16:21:27.207Z,30.10
2022-08-17T16:23:59.131Z,30.10
2022-08-17T16:26:28.954Z,30.40
2022-08-17T16:28:58.125Z,30.50
2022-08-17T16:31:27.279Z,30.60
2022-08-17T16:34:15.455Z,30.70
2022-08-17T16:36:51.822Z,30.70
2022-08-17T16:39:26.889Z,30.60
2022-08-17T16:41:56.265Z,30.60
2022-08-17T16:44:26.164Z,30.60
2022-08-17T16:46:54.646Z,30.40
2022-08-17T16:49:36.009Z,30.30
2022-08-17T16:52:09.875Z,30.40
2022-08-17T16:54:43.638Z,30.30
2022-08-17T16:57:12.977Z,30.30
2022-08-17T16:59:43.943Z,30.20
2022-08-17T17:02:17.057Z,30.20
2022-08-17T17:04:52.052Z,30.10
2022-08-17T17:07:51.100Z,30.00
2022-08-17T17:10:26.165Z,30.00
2022-08-17T17:13:02.715Z,29.90
2022-08-17T17:15:46.415Z,29.90
2022-08-17T17:18:16.686Z,29.90
2022-08-17T17:20:53.604Z,29.70
2022-08-17T17:23:39.377Z,29.80
2022-08-17T17:26:26.091Z,29.70
2022-08-17T17:29:10.597Z,29.60
2022-08-17T17:31:46.224Z,29.60
2022-08-17T17:34:17.482Z,29.50
2022-08-17T17:36:50.058Z,29.40
2022-08-17T17:39:21.160Z,29.40
2022-08-17T17:41:56.335Z,29.40
2022-08-17T17:44:28.775Z,29.30
2022-08-17T17:46:59.673Z,29.30
2022-08-17T17:49:31.168Z,29.10
2022-08-17T17:52:13.193Z,29.10
2022-08-17T17:54:59.240Z,28.90
2022-08-17T17:57:45.032Z,29.00
2022-08-17T18:00:16.857Z,28.90
2022-08-17T18:03:00.939Z,28.80
2022-08-17T18:05:48.025Z,28.70
2022-08-17T18:08:34.762Z,28.70
2022-08-17T18:11:14.385Z,28.70
2022-08-17T18:14:15.562Z,28.50
2022-08-17T18:16:44.674Z,28.50
2022-08-17T18:19:14.268Z,28.40
2022-08-17T18:21:47.067Z,28.50
2022-08-17T18:24:15.632Z,28.50
2022-08-17T18:26:49.001Z,28.40
2022-08-17T18:29:26.542Z,28.40
2022-08-17T18:32:31.297Z,28.30
2022-08-17T18:35:02.442Z,28.20
2022-08-17T18:37:41.105Z,28.20
2022-08-17T18:40:32.884Z,28.20
2022-08-17T18:43:08.706Z,28.20
2022-08-17T18:45:43.030Z,28.10
2022-08-17T18:48:33.402Z,28.20
2022-08-17T18:51:21.615Z,28.10
2022-08-17T18:54:20.569Z,28.10
2022-08-17T18:56:55.745Z,28.10
2022-08-17T18:59:32.429Z,28.10
2022-08-17T19:02:44.244Z,28.20
2022-08-17T19:05:29.809Z,28.20
2022-08-17T19:08:22.720Z,28.10
2022-08-17T19:10:55.191Z,28.10
2022-08-17T19:13:29.811Z,27.80
2022-08-17T19:16:11.780Z,27.90
2022-08-17T19:18:52.285Z,27.90
2022-08-17T19:21:25.272Z,27.80
2022-08-17T19:23:59.410Z,27.70
2022-08-17T19:26:54.549Z,27.70
2022-08-17T19:29:25.803Z,27.70
2022-08-17T19:31:56.567Z,27.60
2022-08-17T19:34:34.042Z,27.70
2022-08-17T19:37:09.143Z,27.70
2022-08-17T19:39:47.520Z,27.70
2022-08-17T19:42:28.196Z,27.60
2022-08-17T19:45:03.263Z,27.60
2022-08-17T19:47:56.488Z,27.50
2022-08-17T19:50:38.519Z,27.50
2022-08-17T19:53:18.631Z,27.60
2022-08-17T19:55:55.252Z,27.60
2022-08-17T19:58:36.339Z,27.60
2022-08-17T20:01:08.444Z,27.60
2022-08-17T20:03:50.714Z,27.60
2022-08-17T20:06:22.671Z,27.60
2022-08-17T20:09:05.078Z,27.50
2022-08-17T20:11:41.343Z,27.30
2022-08-17T20:14:14.991Z,27.30
2022-08-17T20:16:44.010Z,27.60
2022-08-17T20:19:22.869Z,27.60
2022-08-17T20:21:57.925Z,27.50
2022-08-17T20:27:21.812Z,27.60
2022-08-17T20:30:09.454Z,27.50
2022-08-17T20:32:52.758Z,27.50
2022-08-17T20:35:25.408Z,27.50
2022-08-17T20:37:58.629Z,27.10
2022-08-17T20:40:33.361Z,27.00
2022-08-17T20:43:40.047Z,26.80
2022-08-17T20:46:23.267Z,26.80
2022-08-17T20:48:54.826Z,27.00
2022-08-17T20:51:30.615Z,27.00
2022-08-17T20:54:34.945Z,27.10
2022-08-17T20:57:13.677Z,27.20
2022-08-17T21:00:01.391Z,27.20
2022-08-17T21:02:32.354Z,27.10
2022-08-17T21:05:07.240Z,27.10
2022-08-17T21:07:54.642Z,26.90
2022-08-17T21:10:41.162Z,26.70
2022-08-17T21:13:50.989Z,26.70
2022-08-17T21:16:54.798Z,26.80
2022-08-17T21:19:49.022Z,27.00
2022-08-17T21:22:40.713Z,27.00
2022-08-17T21:25:25.779Z,26.90
2022-08-17T21:28:08.341Z,27.00
2022-08-17T21:30:56.660Z,27.10
2022-08-17T21:33:28.935Z,27.00
2022-08-17T21:36:25.718Z,26.90
2022-08-17T21:39:01.491Z,27.00
2022-08-17T21:41:33.611Z,27.00
2022-08-17T21:44:12.410Z,27.00
2022-08-17T21:46:46.632Z,27.10
2022-08-17T21:49:17.942Z,27.00
2022-08-17T21:51:51.103Z,26.60
2022-08-17T21:54:33.993Z,26.50
2022-08-17T21:57:05.716Z,26.50
2022-08-17T21:59:38.481Z,26.40
2022-08-17T22:02:10.629Z,26.30
2022-08-17T22:04:41.274Z,26.10
2022-08-17T22:07:12.201Z,25.90
2022-08-17T22:09:44.302Z,26.10
2022-08-17T22:12:16.540Z,26.30
2022-08-17T22:14:52.908Z,26.30
2022-08-17T22:17:26.227Z,26.20
2022-08-17T22:19:56.394Z,26.20
2022-08-17T22:22:29.292Z,26.20
2022-08-17T22:24:59.769Z,26.00
2022-08-17T22:27:49.972Z,26.00
2022-08-17T22:30:27.662Z,26.10
2022-08-17T22:32:57.962Z,26.10
2022-08-17T22:35:41.879Z,26.20
2022-08-17T22:38:32.946Z,26.30
2022-08-17T22:41:37.718Z,26.00
2022-08-17T22:44:18.776Z,26.00
2022-08-17T22:47:03.383Z,26.20
2022-08-17T22:49:38.609Z,26.20
2022-08-17T22:52:32.899Z,26.30
2022-08-17T22:58:27.966Z,26.10
2022-08-17T23:00:56.527Z,25.90
2022-08-17T23:03:28.072Z,25.90
2022-08-17T23:06:09.244Z,26.10
2022-08-17T23:08:46.789Z,25.90
2022-08-17T23:11:15.446Z,25.60
2022-08-17T23:13:44.583Z,25.70
2022-08-17T23:16:14.980Z,25.70
2022-08-17T23:18:43.709Z,25.70
2022-08-17T23:21:16.018Z,25.90
2022-08-17T23:23:54.719Z,25.80
2022-08-17T23:26:24.152Z,25.70
2022-08-17T23:28:52.572Z,25.80
2022-08-17T23:31:26.021Z,25.90
2022-08-17T23:33:54.539Z,25.90
2022-08-17T23:36:24.355Z,26.00
2022-08-17T23:38:54.536Z,26.10
2022-08-17T23:41:26.942Z,26.00
2022-08-17T23:43:55.518Z,25.80
2022-08-17T23:46:25.236Z,25.80
2022-08-17T23:48:54.287Z,25.80
2022-08-17T23:51:26.696Z,25.90
2022-08-17T23:53:58.203Z,26.00
2022-08-17T23:56:26.909Z,26.20
2022-08-17T23:58:56.601Z,26.20
